sensor_id;sensor_type;location;lat;lon;timestamp;temperature;humidity
33863;DHT22;20158;51.436;-2.742;2022-12-19T00:00:29;15.80;71.80
33863;DHT22;20158;51.436;-2.742;2022-12-19T00:03:13;15.80;71.70
33863;DHT22;20158;51.436;-2.742;2022-12-19T00:06:03;15.80;71.70
33863;DHT22;20158;51.436;-2.742;2022-12-19T00:08:49;15.80;71.60
33863;DHT22;20158;51.436;-2.742;2022-12-19T00:11:34;15.80;71.60
33863;DHT22;20158;51.436;-2.742;2022-12-19T00:14:18;15.80;71.60
33863;DHT22;20158;51.436;-2.742;2022-12-19T00:17:03;15.80;71.50
33863;DHT22;20158;51.436;-2.742;2022-12-19T00:19:48;15.80;71.50
33863;DHT22;20158;51.436;-2.742;2022-12-19T00:22:32;15.80;71.50
33863;DHT22;20158;51.436;-2.742;2022-12-19T00:25:17;15.80;71.40
33863;DHT22;20158;51.436;-2.742;2022-12-19T00:28:02;15.80;71.40
33863;DHT22;20158;51.436;-2.742;2022-12-19T00:30:47;15.80;71.30
33863;DHT22;20158;51.436;-2.742;2022-12-19T00:33:32;15.80;71.30
33863;DHT22;20158;51.436;-2.742;2022-12-19T00:36:24;15.80;71.20
33863;DHT22;20158;51.436;-2.742;2022-12-19T00:39:09;15.80;71.20
33863;DHT22;20158;51.436;-2.742;2022-12-19T00:41:54;15.80;71.10
33863;DHT22;20158;51.436;-2.742;2022-12-19T00:44:40;15.80;71.10
33863;DHT22;20158;51.436;-2.742;2022-12-19T00:47:25;15.80;71.10
33863;DHT22;20158;51.436;-2.742;2022-12-19T00:50:10;15.80;71.00
33863;DHT22;20158;51.436;-2.742;2022-12-19T00:52:55;15.80;71.00
33863;DHT22;20158;51.436;-2.742;2022-12-19T00:55:40;15.80;71.00
33863;DHT22;20158;51.436;-2.742;2022-12-19T00:58:24;15.80;71.00
33863;DHT22;20158;51.436;-2.742;2022-12-19T01:01:16;15.80;71.00
33863;DHT22;20158;51.436;-2.742;2022-12-19T01:04:04;15.80;71.00
33863;DHT22;20158;51.436;-2.742;2022-12-19T01:06:49;15.90;71.10
33863;DHT22;20158;51.436;-2.742;2022-12-19T01:09:35;15.80;71.00
33863;DHT22;20158;51.436;-2.742;2022-12-19T01:12:20;15.80;70.90
33863;DHT22;20158;51.436;-2.742;2022-12-19T01:15:23;15.80;71.00
33863;DHT22;20158;51.436;-2.742;2022-12-19T01:18:08;15.80;70.90
33863;DHT22;20158;51.436;-2.742;2022-12-19T01:20:53;15.90;71.10
33863;DHT22;20158;51.436;-2.742;2022-12-19T01:23:37;15.80;70.90
33863;DHT22;20158;51.436;-2.742;2022-12-19T01:26:22;15.80;70.90
33863;DHT22;20158;51.436;-2.742;2022-12-19T01:29:07;15.80;70.90
33863;DHT22;20158;51.436;-2.742;2022-12-19T01:31:51;15.80;70.80
33863;DHT22;20158;51.436;-2.742;2022-12-19T01:34:36;15.90;71.00
33863;DHT22;20158;51.436;-2.742;2022-12-19T01:37:21;15.90;71.00
33863;DHT22;20158;51.436;-2.742;2022-12-19T01:40:05;15.90;71.00
33863;DHT22;20158;51.436;-2.742;2022-12-19T01:42:50;15.90;70.90
33863;DHT22;20158;51.436;-2.742;2022-12-19T01:45:35;15.90;70.90
33863;DHT22;20158;51.436;-2.742;2022-12-19T01:48:58;15.90;70.80
33863;DHT22;20158;51.436;-2.742;2022-12-19T01:51:40;15.90;70.80
33863;DHT22;20158;51.436;-2.742;2022-12-19T01:54:30;15.90;70.70
33863;DHT22;20158;51.436;-2.742;2022-12-19T01:57:17;15.90;70.70
33863;DHT22;20158;51.436;-2.742;2022-12-19T02:00:04;15.90;70.70
33863;DHT22;20158;51.436;-2.742;2022-12-19T02:03:02;15.90;70.70
33863;DHT22;20158;51.436;-2.742;2022-12-19T02:05:50;15.90;70.70
33863;DHT22;20158;51.436;-2.742;2022-12-19T02:08:36;15.90;70.60
33863;DHT22;20158;51.436;-2.742;2022-12-19T02:11:22;15.90;70.60
33863;DHT22;20158;51.436;-2.742;2022-12-19T02:14:07;15.90;70.60
33863;DHT22;20158;51.436;-2.742;2022-12-19T02:21:10;15.90;70.50
33863;DHT22;20158;51.436;-2.742;2022-12-19T02:23:43;15.90;70.50
33863;DHT22;20158;51.436;-2.742;2022-12-19T02:30:11;15.90;70.50
33863;DHT22;20158;51.436;-2.742;2022-12-19T02:33:18;15.90;70.50
33863;DHT22;20158;51.436;-2.742;2022-12-19T02:36:37;15.90;70.50
33863;DHT22;20158;51.436;-2.742;2022-12-19T02:42:27;15.90;70.40
33863;DHT22;20158;51.436;-2.742;2022-12-19T02:45:15;15.90;70.50
33863;DHT22;20158;51.436;-2.742;2022-12-19T02:48:02;15.90;70.50
33863;DHT22;20158;51.436;-2.742;2022-12-19T02:50:47;15.90;70.40
33863;DHT22;20158;51.436;-2.742;2022-12-19T02:53:32;15.90;70.40
33863;DHT22;20158;51.436;-2.742;2022-12-19T02:56:30;15.90;70.40
33863;DHT22;20158;51.436;-2.742;2022-12-19T03:05:44;15.90;70.30
33863;DHT22;20158;51.436;-2.742;2022-12-19T03:08:34;15.90;70.30
33863;DHT22;20158;51.436;-2.742;2022-12-19T03:11:22;15.90;70.30
33863;DHT22;20158;51.436;-2.742;2022-12-19T03:14:11;15.90;70.30
33863;DHT22;20158;51.436;-2.742;2022-12-19T03:17:03;15.90;70.30
33863;DHT22;20158;51.436;-2.742;2022-12-19T03:19:48;15.90;70.20
33863;DHT22;20158;51.436;-2.742;2022-12-19T03:22:32;15.90;70.80
33863;DHT22;20158;51.436;-2.742;2022-12-19T03:25:18;15.90;70.20
33863;DHT22;20158;51.436;-2.742;2022-12-19T03:28:07;15.90;70.20
33863;DHT22;20158;51.436;-2.742;2022-12-19T03:30:54;15.90;70.20
33863;DHT22;20158;51.436;-2.742;2022-12-19T03:33:42;15.90;70.20
33863;DHT22;20158;51.436;-2.742;2022-12-19T03:36:30;15.90;70.20
33863;DHT22;20158;51.436;-2.742;2022-12-19T03:39:17;15.90;70.20
33863;DHT22;20158;51.436;-2.742;2022-12-19T03:42:03;16.00;70.50
33863;DHT22;20158;51.436;-2.742;2022-12-19T03:45:07;15.90;70.30
33863;DHT22;20158;51.436;-2.742;2022-12-19T03:47:59;15.90;70.20
33863;DHT22;20158;51.436;-2.742;2022-12-19T03:54:05;16.00;70.30
33863;DHT22;20158;51.436;-2.742;2022-12-19T03:56:57;16.00;70.40
33863;DHT22;20158;51.436;-2.742;2022-12-19T04:00:10;16.00;70.30
33863;DHT22;20158;51.436;-2.742;2022-12-19T04:02:59;16.00;70.20
33863;DHT22;20158;51.436;-2.742;2022-12-19T04:05:46;16.00;70.30
33863;DHT22;20158;51.436;-2.742;2022-12-19T04:08:32;16.00;70.30
33863;DHT22;20158;51.436;-2.742;2022-12-19T04:11:19;16.00;70.20
33863;DHT22;20158;51.436;-2.742;2022-12-19T04:14:07;16.00;70.20
33863;DHT22;20158;51.436;-2.742;2022-12-19T04:20:04;16.00;70.20
33863;DHT22;20158;51.436;-2.742;2022-12-19T04:23:03;16.00;70.20
33863;DHT22;20158;51.436;-2.742;2022-12-19T04:25:55;16.00;70.10
33863;DHT22;20158;51.436;-2.742;2022-12-19T04:28:48;15.90;70.00
33863;DHT22;20158;51.436;-2.742;2022-12-19T04:31:34;16.00;70.20
33863;DHT22;20158;51.436;-2.742;2022-12-19T04:34:20;16.00;70.20
33863;DHT22;20158;51.436;-2.742;2022-12-19T04:37:04;16.00;70.10
33863;DHT22;20158;51.436;-2.742;2022-12-19T04:39:48;16.00;70.10
33863;DHT22;20158;51.436;-2.742;2022-12-19T04:42:33;16.00;70.10
33863;DHT22;20158;51.436;-2.742;2022-12-19T04:45:18;16.00;70.10
33863;DHT22;20158;51.436;-2.742;2022-12-19T04:48:03;16.00;70.10
33863;DHT22;20158;51.436;-2.742;2022-12-19T04:50:47;16.00;70.00
33863;DHT22;20158;51.436;-2.742;2022-12-19T04:53:32;16.00;70.00
33863;DHT22;20158;51.436;-2.742;2022-12-19T04:56:16;16.00;70.00
33863;DHT22;20158;51.436;-2.742;2022-12-19T04:59:01;16.00;70.00
33863;DHT22;20158;51.436;-2.742;2022-12-19T05:01:45;16.00;70.00
33863;DHT22;20158;51.436;-2.742;2022-12-19T05:04:30;16.00;69.90
33863;DHT22;20158;51.436;-2.742;2022-12-19T05:07:15;16.00;69.90
33863;DHT22;20158;51.436;-2.742;2022-12-19T05:09:59;16.00;69.90
33863;DHT22;20158;51.436;-2.742;2022-12-19T05:12:44;16.00;69.90
33863;DHT22;20158;51.436;-2.742;2022-12-19T05:15:29;16.00;69.90
33863;DHT22;20158;51.436;-2.742;2022-12-19T05:18:13;16.00;69.90
33863;DHT22;20158;51.436;-2.742;2022-12-19T05:20:58;16.00;69.80
33863;DHT22;20158;51.436;-2.742;2022-12-19T05:23:43;16.00;69.90
33863;DHT22;20158;51.436;-2.742;2022-12-19T05:26:28;16.00;69.90
33863;DHT22;20158;51.436;-2.742;2022-12-19T05:29:12;16.00;70.30
33863;DHT22;20158;51.436;-2.742;2022-12-19T05:31:57;16.00;69.80
33863;DHT22;20158;51.436;-2.742;2022-12-19T05:34:41;16.00;69.80
33863;DHT22;20158;51.436;-2.742;2022-12-19T05:37:26;16.00;69.80
33863;DHT22;20158;51.436;-2.742;2022-12-19T05:40:11;16.10;70.00
33863;DHT22;20158;51.436;-2.742;2022-12-19T05:42:55;16.10;70.00
33863;DHT22;20158;51.436;-2.742;2022-12-19T05:45:40;16.10;70.00
33863;DHT22;20158;51.436;-2.742;2022-12-19T05:48:25;16.10;70.00
33863;DHT22;20158;51.436;-2.742;2022-12-19T05:51:09;16.10;70.00
33863;DHT22;20158;51.436;-2.742;2022-12-19T05:53:54;16.10;70.00
33863;DHT22;20158;51.436;-2.742;2022-12-19T05:56:38;16.20;70.20
33863;DHT22;20158;51.436;-2.742;2022-12-19T05:59:23;16.20;70.20
33863;DHT22;20158;51.436;-2.742;2022-12-19T06:02:08;16.20;70.20
33863;DHT22;20158;51.436;-2.742;2022-12-19T06:04:52;16.20;70.20
33863;DHT22;20158;51.436;-2.742;2022-12-19T06:07:37;16.30;70.40
33863;DHT22;20158;51.436;-2.742;2022-12-19T06:10:21;16.30;70.40
33863;DHT22;20158;51.436;-2.742;2022-12-19T06:13:06;16.30;70.40
33863;DHT22;20158;51.436;-2.742;2022-12-19T06:15:59;16.30;70.40
33863;DHT22;20158;51.436;-2.742;2022-12-19T06:18:44;16.30;70.40
33863;DHT22;20158;51.436;-2.742;2022-12-19T06:21:29;16.30;70.40
33863;DHT22;20158;51.436;-2.742;2022-12-19T06:24:14;16.30;70.40
33863;DHT22;20158;51.436;-2.742;2022-12-19T06:26:58;16.40;70.70
33863;DHT22;20158;51.436;-2.742;2022-12-19T06:29:43;16.40;70.60
33863;DHT22;20158;51.436;-2.742;2022-12-19T06:32:27;16.40;70.60
33863;DHT22;20158;51.436;-2.742;2022-12-19T06:35:12;16.40;70.60
33863;DHT22;20158;51.436;-2.742;2022-12-19T06:37:56;16.40;70.60
33863;DHT22;20158;51.436;-2.742;2022-12-19T06:40:42;16.50;70.80
33863;DHT22;20158;51.436;-2.742;2022-12-19T06:43:46;16.50;70.70
33863;DHT22;20158;51.436;-2.742;2022-12-19T06:46:30;16.50;70.70
33863;DHT22;20158;51.436;-2.742;2022-12-19T06:49:15;16.60;70.80
33863;DHT22;20158;51.436;-2.742;2022-12-19T06:52:00;16.60;70.90
33863;DHT22;20158;51.436;-2.742;2022-12-19T06:54:45;16.60;70.80
33863;DHT22;20158;51.436;-2.742;2022-12-19T06:57:29;16.70;71.00
33863;DHT22;20158;51.436;-2.742;2022-12-19T07:00:14;16.70;71.00
33863;DHT22;20158;51.436;-2.742;2022-12-19T07:03:00;16.80;71.20
33863;DHT22;20158;51.436;-2.742;2022-12-19T07:05:45;16.80;71.10
33863;DHT22;20158;51.436;-2.742;2022-12-19T07:08:29;16.90;71.30
33863;DHT22;20158;51.436;-2.742;2022-12-19T07:11:14;16.80;71.10
33863;DHT22;20158;51.436;-2.742;2022-12-19T07:13:58;16.90;71.50
33863;DHT22;20158;51.436;-2.742;2022-12-19T07:16:44;16.90;71.50
33863;DHT22;20158;51.436;-2.742;2022-12-19T07:19:29;16.90;71.50
33863;DHT22;20158;51.436;-2.742;2022-12-19T07:22:15;16.90;71.50
33863;DHT22;20158;51.436;-2.742;2022-12-19T07:25:00;16.90;71.70
33863;DHT22;20158;51.436;-2.742;2022-12-19T07:27:46;16.80;71.80
33863;DHT22;20158;51.436;-2.742;2022-12-19T07:30:31;16.90;72.10
33863;DHT22;20158;51.436;-2.742;2022-12-19T07:33:15;16.90;72.00
33863;DHT22;20158;51.436;-2.742;2022-12-19T07:36:00;16.90;72.00
33863;DHT22;20158;51.436;-2.742;2022-12-19T07:38:45;16.90;72.10
33863;DHT22;20158;51.436;-2.742;2022-12-19T07:41:29;16.80;71.90
33863;DHT22;20158;51.436;-2.742;2022-12-19T07:44:14;16.80;72.30
33863;DHT22;20158;51.436;-2.742;2022-12-19T07:46:59;16.70;72.10
33863;DHT22;20158;51.436;-2.742;2022-12-19T07:49:44;16.60;72.10
33863;DHT22;20158;51.436;-2.742;2022-12-19T07:52:28;16.50;72.10
33863;DHT22;20158;51.436;-2.742;2022-12-19T07:55:13;16.50;72.30
33863;DHT22;20158;51.436;-2.742;2022-12-19T07:57:58;16.40;72.20
33863;DHT22;20158;51.436;-2.742;2022-12-19T08:00:42;16.40;72.30
33863;DHT22;20158;51.436;-2.742;2022-12-19T08:03:27;16.30;72.30
33863;DHT22;20158;51.436;-2.742;2022-12-19T08:06:12;16.30;72.40
33863;DHT22;20158;51.436;-2.742;2022-12-19T08:08:56;16.20;72.30
33863;DHT22;20158;51.436;-2.742;2022-12-19T08:11:41;16.20;72.30
33863;DHT22;20158;51.436;-2.742;2022-12-19T08:14:26;16.10;72.30
33863;DHT22;20158;51.436;-2.742;2022-12-19T08:17:10;16.10;72.40
33863;DHT22;20158;51.436;-2.742;2022-12-19T08:19:55;16.10;72.50
33863;DHT22;20158;51.436;-2.742;2022-12-19T08:22:40;16.00;72.40
33863;DHT22;20158;51.436;-2.742;2022-12-19T08:25:25;16.00;72.50
33863;DHT22;20158;51.436;-2.742;2022-12-19T08:28:09;16.00;73.10
33863;DHT22;20158;51.436;-2.742;2022-12-19T08:30:54;16.00;73.20
33863;DHT22;20158;51.436;-2.742;2022-12-19T08:33:39;15.90;72.60
33863;DHT22;20158;51.436;-2.742;2022-12-19T08:36:24;15.90;72.60
33863;DHT22;20158;51.436;-2.742;2022-12-19T08:39:08;15.90;72.60
33863;DHT22;20158;51.436;-2.742;2022-12-19T08:41:54;15.80;72.50
33863;DHT22;20158;51.436;-2.742;2022-12-19T08:44:39;15.80;72.60
33863;DHT22;20158;51.436;-2.742;2022-12-19T08:47:23;15.80;72.60
33863;DHT22;20158;51.436;-2.742;2022-12-19T08:50:09;15.80;72.70
33863;DHT22;20158;51.436;-2.742;2022-12-19T08:52:54;15.80;72.80
33863;DHT22;20158;51.436;-2.742;2022-12-19T08:55:39;15.70;72.60
33863;DHT22;20158;51.436;-2.742;2022-12-19T08:58:25;15.70;72.70
33863;DHT22;20158;51.436;-2.742;2022-12-19T09:01:12;15.70;72.80
33863;DHT22;20158;51.436;-2.742;2022-12-19T09:03:58;15.70;72.80
33863;DHT22;20158;51.436;-2.742;2022-12-19T09:06:43;15.70;72.80
33863;DHT22;20158;51.436;-2.742;2022-12-19T09:09:27;15.70;72.90
33863;DHT22;20158;51.436;-2.742;2022-12-19T09:12:13;15.70;72.90
33863;DHT22;20158;51.436;-2.742;2022-12-19T09:14:58;15.70;73.00
33863;DHT22;20158;51.436;-2.742;2022-12-19T09:17:43;15.70;73.00
33863;DHT22;20158;51.436;-2.742;2022-12-19T09:20:28;15.60;72.90
33863;DHT22;20158;51.436;-2.742;2022-12-19T09:23:12;15.60;72.90
33863;DHT22;20158;51.436;-2.742;2022-12-19T09:26:09;15.60;72.90
33863;DHT22;20158;51.436;-2.742;2022-12-19T09:28:53;15.60;73.00
33863;DHT22;20158;51.436;-2.742;2022-12-19T09:31:38;15.60;73.00
33863;DHT22;20158;51.436;-2.742;2022-12-19T09:34:26;15.60;73.10
33863;DHT22;20158;51.436;-2.742;2022-12-19T09:37:12;15.60;73.10
33863;DHT22;20158;51.436;-2.742;2022-12-19T09:39:56;15.60;73.10
33863;DHT22;20158;51.436;-2.742;2022-12-19T09:43:10;15.50;72.90
33863;DHT22;20158;51.436;-2.742;2022-12-19T09:46:19;15.60;73.20
33863;DHT22;20158;51.436;-2.742;2022-12-19T09:49:15;15.60;73.20
33863;DHT22;20158;51.436;-2.742;2022-12-19T09:52:16;15.50;73.10
33863;DHT22;20158;51.436;-2.742;2022-12-19T09:55:18;15.50;73.10
33863;DHT22;20158;51.436;-2.742;2022-12-19T10:01:03;15.50;73.20
33863;DHT22;20158;51.436;-2.742;2022-12-19T10:04:24;15.50;73.20
33863;DHT22;20158;51.436;-2.742;2022-12-19T10:07:10;15.60;73.40
33863;DHT22;20158;51.436;-2.742;2022-12-19T10:09:55;15.60;73.30
33863;DHT22;20158;51.436;-2.742;2022-12-19T10:15:45;15.60;73.30
33863;DHT22;20158;51.436;-2.742;2022-12-19T10:18:48;15.60;73.30
33863;DHT22;20158;51.436;-2.742;2022-12-19T10:28:15;15.60;73.30
33863;DHT22;20158;51.436;-2.742;2022-12-19T10:31:21;15.70;73.50
33863;DHT22;20158;51.436;-2.742;2022-12-19T10:34:18;15.60;73.40
33863;DHT22;20158;51.436;-2.742;2022-12-19T10:37:16;15.60;73.40
33863;DHT22;20158;51.436;-2.742;2022-12-19T10:40:09;15.60;73.40
33863;DHT22;20158;51.436;-2.742;2022-12-19T10:43:04;15.70;74.10
33863;DHT22;20158;51.436;-2.742;2022-12-19T10:45:54;15.70;73.60
33863;DHT22;20158;51.436;-2.742;2022-12-19T10:48:40;15.70;73.60
33863;DHT22;20158;51.436;-2.742;2022-12-19T10:51:27;15.60;73.40
33863;DHT22;20158;51.436;-2.742;2022-12-19T10:54:12;15.70;73.60
33863;DHT22;20158;51.436;-2.742;2022-12-19T11:00:16;15.70;73.60
33863;DHT22;20158;51.436;-2.742;2022-12-19T11:03:12;15.60;73.40
33863;DHT22;20158;51.436;-2.742;2022-12-19T11:05:58;15.70;73.60
33863;DHT22;20158;51.436;-2.742;2022-12-19T11:08:42;15.70;73.60
33863;DHT22;20158;51.436;-2.742;2022-12-19T11:11:33;15.70;73.50
33863;DHT22;20158;51.436;-2.742;2022-12-19T11:14:24;15.70;73.60
33863;DHT22;20158;51.436;-2.742;2022-12-19T11:20:21;15.70;73.70
33863;DHT22;20158;51.436;-2.742;2022-12-19T11:23:12;15.70;73.70
33863;DHT22;20158;51.436;-2.742;2022-12-19T11:26:02;15.70;73.70
33863;DHT22;20158;51.436;-2.742;2022-12-19T11:28:48;15.60;73.50
33863;DHT22;20158;51.436;-2.742;2022-12-19T11:31:35;15.70;73.80
33863;DHT22;20158;51.436;-2.742;2022-12-19T11:34:22;15.70;73.80
33863;DHT22;20158;51.436;-2.742;2022-12-19T11:37:32;15.60;73.60
33863;DHT22;20158;51.436;-2.742;2022-12-19T11:43:35;15.60;73.60
33863;DHT22;20158;51.436;-2.742;2022-12-19T11:52:32;15.60;73.70
33863;DHT22;20158;51.436;-2.742;2022-12-19T11:55:27;15.70;73.90
33863;DHT22;20158;51.436;-2.742;2022-12-19T11:58:13;15.70;73.90
33863;DHT22;20158;51.436;-2.742;2022-12-19T12:04:11;15.70;74.10
33863;DHT22;20158;51.436;-2.742;2022-12-19T12:07:03;15.80;74.30
33863;DHT22;20158;51.436;-2.742;2022-12-19T12:09:48;15.80;74.40
33863;DHT22;20158;51.436;-2.742;2022-12-19T12:22:08;16.20;75.20
33863;DHT22;20158;51.436;-2.742;2022-12-19T12:25:04;16.30;75.10
33863;DHT22;20158;51.436;-2.742;2022-12-19T12:28:56;16.30;74.90
33863;DHT22;20158;51.436;-2.742;2022-12-19T12:44:08;16.60;75.10
33863;DHT22;20158;51.436;-2.742;2022-12-19T12:50:03;16.60;75.20
33863;DHT22;20158;51.436;-2.742;2022-12-19T12:52:52;16.60;75.30
33863;DHT22;20158;51.436;-2.742;2022-12-19T12:55:39;16.50;75.10
33863;DHT22;20158;51.436;-2.742;2022-12-19T13:01:37;16.60;75.30
33863;DHT22;20158;51.436;-2.742;2022-12-19T13:04:29;16.50;75.20
33863;DHT22;20158;51.436;-2.742;2022-12-19T13:07:26;16.50;75.20
33863;DHT22;20158;51.436;-2.742;2022-12-19T13:10:24;16.50;75.30
33863;DHT22;20158;51.436;-2.742;2022-12-19T13:13:13;16.50;75.30
33863;DHT22;20158;51.436;-2.742;2022-12-19T13:15:58;16.50;75.30
33863;DHT22;20158;51.436;-2.742;2022-12-19T13:19:23;16.60;75.50
33863;DHT22;20158;51.436;-2.742;2022-12-19T13:22:16;16.50;75.30
33863;DHT22;20158;51.436;-2.742;2022-12-19T13:25:01;16.60;75.50
33863;DHT22;20158;51.436;-2.742;2022-12-19T13:27:47;16.60;75.50
33863;DHT22;20158;51.436;-2.742;2022-12-19T13:30:32;16.60;75.30
33863;DHT22;20158;51.436;-2.742;2022-12-19T13:33:17;16.70;75.50
33863;DHT22;20158;51.436;-2.742;2022-12-19T13:36:01;16.70;75.30
33863;DHT22;20158;51.436;-2.742;2022-12-19T13:38:48;16.70;75.30
33863;DHT22;20158;51.436;-2.742;2022-12-19T13:41:40;16.70;75.30
33863;DHT22;20158;51.436;-2.742;2022-12-19T13:44:44;16.70;75.20
33863;DHT22;20158;51.436;-2.742;2022-12-19T13:47:38;16.70;75.10
33863;DHT22;20158;51.436;-2.742;2022-12-19T13:50:38;16.80;75.20
33863;DHT22;20158;51.436;-2.742;2022-12-19T13:53:25;16.80;75.20
33863;DHT22;20158;51.436;-2.742;2022-12-19T13:56:17;16.80;75.10
33863;DHT22;20158;51.436;-2.742;2022-12-19T13:59:03;16.80;75.10
33863;DHT22;20158;51.436;-2.742;2022-12-19T14:01:51;16.80;75.10
33863;DHT22;20158;51.436;-2.742;2022-12-19T14:04:39;16.80;75.10
33863;DHT22;20158;51.436;-2.742;2022-12-19T14:07:40;16.70;75.00
33863;DHT22;20158;51.436;-2.742;2022-12-19T14:10:31;16.70;75.00
33863;DHT22;20158;51.436;-2.742;2022-12-19T14:13:20;16.70;75.00
33863;DHT22;20158;51.436;-2.742;2022-12-19T14:16:24;16.70;75.10
33863;DHT22;20158;51.436;-2.742;2022-12-19T14:19:21;16.70;75.10
33863;DHT22;20158;51.436;-2.742;2022-12-19T14:25:02;16.60;75.10
33863;DHT22;20158;51.436;-2.742;2022-12-19T14:27:51;16.60;75.20
33863;DHT22;20158;51.436;-2.742;2022-12-19T14:30:39;16.50;75.10
33863;DHT22;20158;51.436;-2.742;2022-12-19T14:33:49;16.50;75.10
33863;DHT22;20158;51.436;-2.742;2022-12-19T14:36:37;16.50;75.20
33863;DHT22;20158;51.436;-2.742;2022-12-19T14:39:31;16.50;75.20
33863;DHT22;20158;51.436;-2.742;2022-12-19T14:42:16;16.50;75.30
33863;DHT22;20158;51.436;-2.742;2022-12-19T14:45:38;16.40;75.10
33863;DHT22;20158;51.436;-2.742;2022-12-19T14:48:32;16.40;75.10
33863;DHT22;20158;51.436;-2.742;2022-12-19T14:51:33;16.40;75.10
33863;DHT22;20158;51.436;-2.742;2022-12-19T14:54:20;16.40;75.20
33863;DHT22;20158;51.436;-2.742;2022-12-19T14:57:04;16.40;75.30
33863;DHT22;20158;51.436;-2.742;2022-12-19T14:59:49;16.30;75.10
33863;DHT22;20158;51.436;-2.742;2022-12-19T15:02:33;16.30;75.20
33863;DHT22;20158;51.436;-2.742;2022-12-19T15:05:19;16.30;75.30
33863;DHT22;20158;51.436;-2.742;2022-12-19T15:08:09;16.30;75.30
33863;DHT22;20158;51.436;-2.742;2022-12-19T15:10:59;16.30;75.40
33863;DHT22;20158;51.436;-2.742;2022-12-19T15:14:04;16.20;75.20
33863;DHT22;20158;51.436;-2.742;2022-12-19T15:17:03;16.30;75.50
33863;DHT22;20158;51.436;-2.742;2022-12-19T15:19:48;16.30;75.50
33863;DHT22;20158;51.436;-2.742;2022-12-19T15:22:33;16.30;75.50
33863;DHT22;20158;51.436;-2.742;2022-12-19T15:25:18;16.30;75.50
33863;DHT22;20158;51.436;-2.742;2022-12-19T15:28:20;16.30;75.60
33863;DHT22;20158;51.436;-2.742;2022-12-19T15:31:55;16.30;75.70
33863;DHT22;20158;51.436;-2.742;2022-12-19T15:34:27;16.30;75.80
33863;DHT22;20158;51.436;-2.742;2022-12-19T15:37:14;16.30;75.80
33863;DHT22;20158;51.436;-2.742;2022-12-19T15:39:59;16.20;75.70
33863;DHT22;20158;51.436;-2.742;2022-12-19T15:42:45;16.20;75.80
33863;DHT22;20158;51.436;-2.742;2022-12-19T15:45:31;16.10;75.70
33863;DHT22;20158;51.436;-2.742;2022-12-19T15:48:16;16.10;75.80
33863;DHT22;20158;51.436;-2.742;2022-12-19T15:51:00;16.00;75.70
33863;DHT22;20158;51.436;-2.742;2022-12-19T15:53:45;16.00;75.80
33863;DHT22;20158;51.436;-2.742;2022-12-19T15:56:34;16.00;75.90
33863;DHT22;20158;51.436;-2.742;2022-12-19T15:59:27;16.00;76.00
33863;DHT22;20158;51.436;-2.742;2022-12-19T16:02:19;15.90;75.90
33863;DHT22;20158;51.436;-2.742;2022-12-19T16:05:05;15.90;76.00
33863;DHT22;20158;51.436;-2.742;2022-12-19T16:07:50;15.80;75.90
33863;DHT22;20158;51.436;-2.742;2022-12-19T16:10:34;15.80;76.00
33863;DHT22;20158;51.436;-2.742;2022-12-19T16:13:23;15.90;76.30
33863;DHT22;20158;51.436;-2.742;2022-12-19T16:16:09;15.80;76.30
33863;DHT22;20158;51.436;-2.742;2022-12-19T16:18:54;15.90;76.40
33863;DHT22;20158;51.436;-2.742;2022-12-19T16:21:38;15.90;76.30
33863;DHT22;20158;51.436;-2.742;2022-12-19T16:24:23;15.90;76.20
33863;DHT22;20158;51.436;-2.742;2022-12-19T16:27:12;15.90;76.20
33863;DHT22;20158;51.436;-2.742;2022-12-19T16:30:17;15.80;76.10
33863;DHT22;20158;51.436;-2.742;2022-12-19T16:33:02;15.80;76.20
33863;DHT22;20158;51.436;-2.742;2022-12-19T16:35:47;15.70;76.00
33863;DHT22;20158;51.436;-2.742;2022-12-19T16:38:32;15.70;76.10
33863;DHT22;20158;51.436;-2.742;2022-12-19T16:41:22;15.70;76.20
33863;DHT22;20158;51.436;-2.742;2022-12-19T16:44:15;15.60;76.10
33863;DHT22;20158;51.436;-2.742;2022-12-19T16:47:00;15.60;76.20
33863;DHT22;20158;51.436;-2.742;2022-12-19T16:49:44;15.60;76.20
33863;DHT22;20158;51.436;-2.742;2022-12-19T16:52:29;15.50;76.10
33863;DHT22;20158;51.436;-2.742;2022-12-19T16:55:14;15.50;76.20
33863;DHT22;20158;51.436;-2.742;2022-12-19T16:58:00;15.50;76.30
33863;DHT22;20158;51.436;-2.742;2022-12-19T17:00:45;15.40;76.20
33863;DHT22;20158;51.436;-2.742;2022-12-19T17:03:37;15.40;76.30
33863;DHT22;20158;51.436;-2.742;2022-12-19T17:06:25;15.40;76.40
33863;DHT22;20158;51.436;-2.742;2022-12-19T17:09:19;15.40;76.50
33863;DHT22;20158;51.436;-2.742;2022-12-19T17:12:05;15.30;76.90
33863;DHT22;20158;51.436;-2.742;2022-12-19T17:14:49;15.30;76.40
33863;DHT22;20158;51.436;-2.742;2022-12-19T17:17:34;15.30;76.50
33863;DHT22;20158;51.436;-2.742;2022-12-19T17:20:21;15.30;76.50
33863;DHT22;20158;51.436;-2.742;2022-12-19T17:23:18;15.30;76.70
33863;DHT22;20158;51.436;-2.742;2022-12-19T17:26:03;15.30;76.70
33863;DHT22;20158;51.436;-2.742;2022-12-19T17:28:47;15.30;76.70
33863;DHT22;20158;51.436;-2.742;2022-12-19T17:31:32;15.30;76.80
33863;DHT22;20158;51.436;-2.742;2022-12-19T17:34:27;15.20;76.70
33863;DHT22;20158;51.436;-2.742;2022-12-19T17:37:15;15.30;77.00
33863;DHT22;20158;51.436;-2.742;2022-12-19T17:40:00;15.30;77.20
33863;DHT22;20158;51.436;-2.742;2022-12-19T17:42:45;15.40;77.30
33863;DHT22;20158;51.436;-2.742;2022-12-19T17:45:32;15.40;77.30
33863;DHT22;20158;51.436;-2.742;2022-12-19T17:48:28;15.40;77.40
33863;DHT22;20158;51.436;-2.742;2022-12-19T17:51:15;15.50;77.80
33863;DHT22;20158;51.436;-2.742;2022-12-19T17:54:00;15.50;77.80
33863;DHT22;20158;51.436;-2.742;2022-12-19T17:56:44;15.60;77.90
33863;DHT22;20158;51.436;-2.742;2022-12-19T17:59:29;15.70;78.00
33863;DHT22;20158;51.436;-2.742;2022-12-19T18:02:23;15.80;78.10
33863;DHT22;20158;51.436;-2.742;2022-12-19T18:05:15;15.90;78.60
33863;DHT22;20158;51.436;-2.742;2022-12-19T18:08:05;15.90;77.80
33863;DHT22;20158;51.436;-2.742;2022-12-19T18:10:50;15.90;77.60
33863;DHT22;20158;51.436;-2.742;2022-12-19T18:13:35;15.90;77.60
33863;DHT22;20158;51.436;-2.742;2022-12-19T18:16:23;15.90;77.60
33863;DHT22;20158;51.436;-2.742;2022-12-19T18:19:17;15.80;77.50
33863;DHT22;20158;51.436;-2.742;2022-12-19T18:22:02;15.80;77.70
33863;DHT22;20158;51.436;-2.742;2022-12-19T18:24:46;15.80;77.70
33863;DHT22;20158;51.436;-2.742;2022-12-19T18:27:31;15.80;78.30
33863;DHT22;20158;51.436;-2.742;2022-12-19T18:30:17;15.80;77.80
33863;DHT22;20158;51.436;-2.742;2022-12-19T18:33:02;15.70;77.60
33863;DHT22;20158;51.436;-2.742;2022-12-19T18:35:49;15.70;77.70
33863;DHT22;20158;51.436;-2.742;2022-12-19T18:38:33;15.70;77.80
33863;DHT22;20158;51.436;-2.742;2022-12-19T18:41:19;15.70;77.80
33863;DHT22;20158;51.436;-2.742;2022-12-19T18:44:04;15.70;77.80
33863;DHT22;20158;51.436;-2.742;2022-12-19T18:46:49;15.70;77.90
33863;DHT22;20158;51.436;-2.742;2022-12-19T18:49:34;15.60;77.70
33863;DHT22;20158;51.436;-2.742;2022-12-19T18:52:20;15.60;77.80